Time;durP1;ratioP1;P1;durP2;ratioP2;P2;SDS_P1;SDS_P2;PMS_P1;PMS_P2;Temp;Humidity;BMP_temperature;BMP_pressure;BME280_temperature;BME280_humidity;BME280_pressure;Samples;Min_cycle;Max_cycle;Signal;HPM_P1;HPM_P2
2022/12/03 04:24:35;;;;;;;25.52;9.55;;;;;;;1.98;100.00;63929.34;1785452;80;20917;-64
2022/12/03 04:29:50;;;;;;;17.77;7.78;;;;;;;2.19;100.00;60456.98;1785428;80;21012;-64
2022/12/03 04:37:47;;;;;;;22.05;8.33;;;;;;;2.31;100.00;59099.36;1785509;80;20858;-66
2022/12/03 04:43:00;;;;;;;21.85;7.72;;;;;;;2.32;100.00;58625.22;1785345;80;20945;-64
2022/12/03 04:45:27;;;;;;;27.48;7.80;;;;;;;2.35;100.00;57841.18;1785209;80;20843;-65
2022/12/03 04:47:53;;;;;;;20.90;6.90;;;;;;;2.36;100.00;57445.52;1785397;79;20949;-65
2022/12/03 04:50:20;;;;;;;20.85;7.72;;;;;;;2.37;100.00;58230.04;1785433;80;21004;-66
2022/12/03 04:52:47;;;;;;;22.42;6.92;;;;;;;2.38;100.00;57855.24;1785625;80;21775;-65
2022/12/03 04:55:13;;;;;;;18.87;6.85;;;;;;;2.40;100.00;57065.02;1785374;79;20913;-65
2022/12/03 04:57:40;;;;;;;20.88;6.92;;;;;;;2.44;100.00;55945.68;1785376;80;20910;-66
2022/12/03 05:00:10;;;;;;;16.67;7.08;;;;;;;2.47;100.00;54945.71;1785277;80;20890;-65
2022/12/03 05:02:37;;;;;;;27.77;7.37;;;;;;;2.50;100.00;54614.39;1785409;80;20917;-66
2022/12/03 05:05:05;;;;;;;19.82;6.30;;;;;;;2.53;100.00;54283.07;1785400;79;21245;-65
2022/12/03 05:07:32;;;;;;;20.97;6.67;;;;;;;2.57;100.00;53785.62;1785352;79;20933;-64
2022/12/03 05:09:59;;;;;;;25.97;7.30;;;;;;;2.61;100.00;51616.70;1785536;80;20831;-66
2022/12/03 05:12:25;;;;;;;18.57;6.50;;;;;;;2.66;100.00;50619.36;1785276;80;20956;-65
2022/12/03 05:14:52;;;;;;;21.27;6.03;;;;;;;2.69;100.00;50288.14;1785392;80;20882;-65
2022/12/03 05:17:19;;;;;;;19.52;5.85;;;;;;;2.70;100.00;50789.99;1785394;80;21997;-66
2022/12/03 05:22:31;;;;;;;14.55;6.40;;;;;;;2.72;100.00;52629.79;1791411;79;20922;-65
2022/12/03 05:24:57;;;;;;;14.35;5.70;;;;;;;2.75;100.00;52798.79;1791145;80;20984;-67
2022/12/03 05:27:24;;;;;;;14.47;5.42;;;;;;;2.77;100.00;52466.48;1791139;79;20877;-67
2022/12/03 05:29:51;;;;;;;24.60;5.53;;;;;;;2.79;100.00;53137.32;1791302;80;21286;-65
2022/12/03 05:32:18;;;;;;;16.27;5.95;;;;;;;2.81;100.00;53975.03;1790562;80;20969;-67
2022/12/03 05:34:45;;;;;;;16.23;5.40;;;;;;;2.82;100.00;55815.52;1790581;80;20918;-67
2022/12/03 05:37:12;;;;;;;13.03;5.28;;;;;;;2.81;100.00;58023.75;1790608;79;20965;-66
2022/12/03 05:39:38;;;;;;;17.75;5.28;;;;;;;2.81;100.00;59847.13;1790521;80;20913;-65
2022/12/03 05:44:50;;;;;;;;;;;;;;;2.84;100.00;60956.13;1793398;80;21406;-66
2022/12/03 05:47:17;;;;;;;14.03;4.90;;;;;;;2.84;100.00;62012.22;1790732;80;20070;-65
2022/12/03 05:49:44;;;;;;;14.07;5.00;;;;;;;2.85;100.00;62515.56;1790771;79;20945;-66
2022/12/03 05:52:10;;;;;;;15.20;5.37;;;;;;;2.86;100.00;63690.75;1790512;80;20901;-66
2022/12/03 05:54:37;;;;;;;13.62;4.90;;;;;;;2.87;100.00;64194.37;1790698;79;21296;-66
2022/12/03 05:57:04;;;;;;;13.60;4.53;;;;;;;2.88;100.00;66040.77;1790615;79;20897;-66
2022/12/03 05:59:31;;;;;;;12.98;4.80;;;;;;;2.86;100.00;68892.61;1790670;79;21031;-66
2022/12/03 06:01:58;;;;;;;17.15;5.58;;;;;;;2.88;100.00;69566.25;1790679;80;20890;-66
2022/12/03 06:04:24;;;;;;;14.13;4.53;;;;;;;2.89;100.00;70910.88;1790652;79;21031;-66
2022/12/03 06:06:51;;;;;;;13.40;4.87;;;;;;;2.89;100.00;72591.63;1790702;80;23020;-66
2022/12/03 06:09:37;;;;;;;10.08;4.28;;;;;;;2.90;100.00;74274.52;1790603;80;20991;-66
2022/12/03 06:12:05;;;;;;;;;;;;;;;2.88;100.00;75954.97;1793376;79;21350;-64
2022/12/03 06:14:33;;;;;;;16.48;4.83;;;;;;;2.89;100.00;77807.23;1790692;80;20169;-65
2022/12/03 06:17:01;;;;;;;11.80;3.90;;;;;;;2.86;100.00;79488.56;1790677;79;20925;-64
2022/12/03 06:19:29;;;;;;;15.53;5.42;;;;;;;2.88;100.00;81175.63;1790634;80;21232;-66
2022/12/03 06:21:55;;;;;;;11.10;4.08;;;;;;;2.89;100.00;81344.88;1777412;80;20874;-66
2022/12/03 06:24:22;;;;;;;11.90;3.55;;;;;;;2.89;100.00;81681.98;1774204;81;20926;-65
2022/12/03 06:26:49;;;;;;;16.07;4.42;;;;;;;2.88;100.00;83872.52;1773982;81;20950;-66
2022/12/03 06:29:16;;;;;;;12.35;4.45;;;;;;;2.86;100.00;87752.52;1774108;81;20882;-65
2022/12/03 06:31:43;;;;;;;11.97;3.70;;;;;;;2.85;100.00;91298.67;1774090;79;21146;-65
2022/12/03 06:34:09;;;;;;;12.15;4.03;;;;;;;2.86;100.00;91130.44;1773963;81;20910;-65
2022/12/03 06:36:36;;;;;;;14.55;4.10;;;;;;;2.86;100.00;89779.36;1774203;81;20882;-66
2022/12/03 06:39:03;;;;;;;13.43;4.10;;;;;;;2.89;100.00;90796.41;1773996;81;20879;-66
2022/12/03 06:41:30;;;;;;;14.98;4.00;;;;;;;2.88;100.00;93669.11;1773921;81;21008;-66
2022/12/03 06:43:56;;;;;;;11.97;4.12;;;;;;;2.86;100.00;97559.94;1774583;80;21354;-65
2022/12/03 06:46:23;;;;;;;12.13;3.50;;;;;;;2.83;100.00;102807.84;1773891;79;20878;-64
2022/12/03 06:48:50;;;;;;;13.53;4.28;;;;;;;2.83;100.00;104164.75;1774139;81;20993;-67
2022/12/03 06:51:17;;;;;;;13.53;4.17;;;;;;;2.83;100.00;107388.55;1774073;81;20862;-66
2022/12/03 06:53:44;;;;;;;14.87;3.83;;;;;;;2.82;100.00;111975.24;1774279;79;20882;-66
2022/12/03 06:56:10;;;;;;;14.05;3.90;;;;;;;2.84;100.00;113338.64;1774078;81;21949;-65
2022/12/03 06:58:37;;;;;;;15.58;4.00;;;;;;;2.84;100.00;114189.20;1773975;79;21048;-65
2022/12/03 07:01:04;;;;;;;10.20;3.65;;;;;;;2.81;100.00;118610.34;1774107;79;20981;-65
2022/12/03 07:03:31;;;;;;;12.30;3.60;;;;;;;2.80;100.00;124063.34;1773904;81;21453;-65
2022/12/03 07:05:59;;;;;;;12.23;4.05;;;;;;;2.80;100.00;126794.05;1774178;81;20905;-65
2022/12/03 07:08:26;;;;;;;13.70;3.65;;;;;;;2.81;100.00;125601.30;1773877;81;21218;-65
2022/12/03 07:10:53;;;;;;;15.20;4.50;;;;;;;2.80;100.00;129185.16;1773864;81;21493;-65
2022/12/03 07:13:21;;;;;;;12.65;3.87;;;;;;;2.81;100.00;132435.09;1773883;79;20965;-65
2022/12/03 07:15:47;;;;;;;13.72;3.60;;;;;;;2.79;100.00;139448.61;1774022;81;20879;-65
2022/12/03 07:18:14;;;;;;;12.80;3.85;;;;;;;2.77;100.00;145802.28;1773993;81;20925;-65
2022/12/03 07:20:40;;;;;;;14.50;3.52;;;;;;;2.78;100.00;147146.05;1776391;80;21242;-65
2022/12/03 07:23:07;;;;;;;15.25;3.92;;;;;;;2.80;100.00;148370.81;1790449;79;21338;-66
2022/12/03 07:25:33;;;;;;;16.12;3.90;;;;;;;2.79;100.00;148366.92;1790610;79;20941;-65
2022/12/03 07:28:00;;;;;;;17.85;4.62;;;;;;;2.82;100.00;148374.66;1790486;79;20940;-65
2022/12/03 07:30:27;;;;;;;10.60;3.52;;;;;;;2.82;100.00;148374.66;1790548;80;20976;-64
2022/12/03 07:32:53;;;;;;;10.18;3.77;;;;;;;2.81;100.00;148372.08;1790706;80;21768;-65
2022/12/03 07:35:20;;;;;;;12.98;3.77;;;;;;;2.81;100.00;148372.08;1790470;79;20957;-65
2022/12/03 07:37:47;;;;;;;11.50;3.58;;;;;;;2.81;100.00;148373.41;1790525;80;20924;-65
2022/12/03 07:40:13;;;;;;;23.85;4.80;;;;;;;2.82;100.00;148374.66;1790568;79;20968;-65
2022/12/03 07:42:40;;;;;;;14.00;3.45;;;;;;;2.82;100.00;148375.97;1790537;79;20838;-65
2022/12/03 07:45:09;;;;;;;10.88;3.22;;;;;;;2.82;100.00;148374.66;1790468;79;21300;-65
2022/12/03 07:47:36;;;;;;;18.02;3.58;;;;;;;2.82;100.00;148375.97;1790778;79;21446;-65
2022/12/03 07:50:04;;;;;;;14.27;4.27;;;;;;;2.81;100.00;148373.41;1790701;79;21457;-64
2022/12/03 07:52:31;;;;;;;12.00;3.50;;;;;;;2.83;100.00;148378.55;1790424;80;20956;-64
2022/12/03 07:54:58;;;;;;;13.13;3.58;;;;;;;2.84;100.00;148381.12;1790488;79;20973;-64
2022/12/03 07:57:24;;;;;;;13.53;4.25;;;;;;;2.85;100.00;148383.70;1790581;79;21248;-64
2022/12/03 07:59:51;;;;;;;11.93;3.47;;;;;;;2.86;100.00;148386.28;1790365;78;20897;-64
2022/12/03 08:02:18;;;;;;;15.00;3.90;;;;;;;2.85;100.00;148383.70;1790444;80;20874;-65
2022/12/03 08:04:46;;;;;;;12.10;3.75;;;;;;;2.83;100.00;148378.55;1790574;80;20909;-64
2022/12/03 08:07:12;;;;;;;11.97;3.87;;;;;;;2.81;100.00;148372.08;1790558;80;21460;-64
2022/12/03 08:09:39;;;;;;;14.00;4.65;;;;;;;2.75;100.00;148357.88;1790474;79;21365;-65
2022/12/03 08:12:38;;;;;;;11.28;3.37;;;;;;;2.71;100.00;148347.56;1770669;80;20877;-64
2022/12/03 08:14:56;;;;;;;9.30;3.50;;;;;;;2.71;100.00;148348.87;1676189;84;20999;-64
2022/12/03 08:17:23;;;;;;;11.60;4.20;;;;;;;2.72;100.00;148350.16;1678085;85;21392;-64
2022/12/03 08:19:50;;;;;;;8.35;3.27;;;;;;;2.71;100.00;148347.56;1678167;85;20921;-64
2022/12/03 08:22:17;;;;;;;16.23;3.67;;;;;;;2.71;100.00;148347.56;1681575;85;21223;-64
2022/12/03 08:24:44;;;;;;;9.50;3.15;;;;;;;2.70;100.00;148345.00;1678097;85;20878;-64
2022/12/03 08:27:15;;;;;;;12.88;3.80;;;;;;;2.68;100.00;148339.84;1677933;85;20985;-64
2022/12/03 08:29:43;;;;;;;9.88;3.17;;;;;;;2.67;100.00;148337.27;1659036;85;21410;-64
2022/12/03 08:32:10;;;;;;;8.10;3.22;;;;;;;2.68;100.00;148339.84;1678146;85;20997;-64
2022/12/03 08:34:42;;;;;;;13.10;3.65;;;;;;;2.68;100.00;148339.84;1678260;85;21885;-65
2022/12/03 08:37:17;;;;;;;8.13;3.33;;;;;;;2.69;100.00;148342.42;1677985;85;20999;-64
2022/12/03 08:39:47;;;;;;;14.68;3.95;;;;;;;2.70;100.00;148345.00;1678023;85;20942;-63
2022/12/03 08:42:41;;;;;;;12.53;4.10;;;;;;;2.70;100.00;148345.00;1678109;85;20935;-63
2022/12/03 08:45:38;;;;;;;9.50;4.28;;;;;;;2.70;100.00;148346.31;1678114;85;21449;-63
2022/12/03 08:48:26;;;;;;;13.75;4.40;;;;;;;2.72;100.00;148350.16;1678110;84;21777;-64
2022/12/03 08:51:06;;;;;;;8.28;3.75;;;;;;;2.73;100.00;148352.72;1677955;85;20901;-63
2022/12/03 08:53:44;;;;;;;11.25;4.28;;;;;;;2.73;100.00;148352.72;1678225;85;21425;-63
2022/12/03 08:56:24;;;;;;;8.90;4.05;;;;;;;2.72;100.00;148350.16;1678133;85;20906;-63
2022/12/03 08:58:55;;;;;;;15.00;3.85;;;;;;;2.71;100.00;148347.56;1677514;84;21469;-63
2022/12/03 09:01:38;;;;;;;15.43;4.60;;;;;;;2.70;100.00;148345.00;1678047;84;21297;-63
2022/12/03 09:04:37;;;;;;;14.10;4.03;;;;;;;2.70;100.00;148346.31;1674261;85;20908;-62
2022/12/03 09:07:03;;;;;;;16.82;4.25;;;;;;;2.69;100.00;148342.42;1676758;85;20981;-62
2022/12/03 09:09:30;;;;;;;12.23;4.30;;;;;;;2.67;100.00;148338.58;1678252;85;21032;-62
2022/12/03 09:11:57;;;;;;;11.43;3.83;;;;;;;2.63;100.00;148326.95;1678243;84;21028;-62
2022/12/03 09:14:24;;;;;;;12.75;3.85;;;;;;;2.60;100.00;148320.48;1674194;84;21278;-62
2022/12/03 09:16:54;;;;;;;18.73;4.80;;;;;;;2.56;100.00;148311.48;1672237;85;20943;-62
2022/12/03 09:19:22;;;;;;;16.60;5.67;;;;;;;2.53;100.00;148303.70;1672093;85;20987;-63
2022/12/03 09:21:49;;;;;;;10.63;3.92;;;;;;;2.51;100.00;148298.56;1672007;85;20939;-62
2022/12/03 09:24:16;;;;;;;13.80;4.33;;;;;;;2.48;100.00;148290.83;1672085;85;20868;-63
2022/12/03 09:26:42;;;;;;;12.18;4.05;;;;;;;2.51;100.00;148297.30;1672211;85;21935;-63
2022/12/03 09:29:09;;;;;;;16.15;4.58;;;;;;;2.50;100.00;148295.97;1672064;85;20955;-62
2022/12/03 09:31:37;;;;;;;13.22;4.87;;;;;;;2.51;100.00;148298.56;1672172;85;21397;-64
2022/12/03 09:34:04;;;;;;;11.95;4.37;;;;;;;2.54;100.00;148305.02;1672142;85;21007;-62
2022/12/03 09:36:31;;;;;;;13.88;3.98;;;;;;;2.56;100.00;148310.17;1672166;85;20935;-62
2022/12/03 09:38:58;;;;;;;14.73;5.33;;;;;;;2.58;100.00;148315.33;1672196;85;22135;-62
2022/12/03 09:41:24;;;;;;;12.23;4.28;;;;;;;2.56;100.00;148311.48;1672000;85;20935;-63
2022/12/03 09:43:53;;;;;;;14.47;4.67;;;;;;;2.57;100.00;148312.75;1672100;85;20963;-63
2022/12/03 09:46:20;;;;;;;11.50;4.33;;;;;;;2.54;100.00;148306.34;1672139;85;21384;-63
2022/12/03 09:48:47;;;;;;;13.75;4.78;;;;;;;2.52;100.00;148301.13;1672126;84;20876;-63
2022/12/03 09:51:13;;;;;;;14.23;4.53;;;;;;;2.49;100.00;148293.41;1672004;85;21953;-63
2022/12/03 09:53:40;;;;;;;16.45;4.75;;;;;;;2.43;100.00;148279.25;1672051;85;20999;-63
2022/12/03 09:56:13;;;;;;;13.15;5.00;;;;;;;2.41;100.00;148272.78;1672041;85;21488;-63
2022/12/03 09:58:40;;;;;;;11.50;5.03;;;;;;;2.41;100.00;148272.78;1672471;85;20919;-62
2022/12/03 10:01:11;;;;;;;16.23;5.30;;;;;;;2.42;100.00;148275.36;1672398;85;21003;-63
2022/12/03 10:03:38;;;;;;;14.20;5.12;;;;;;;2.43;100.00;148277.94;1672305;85;21243;-63
2022/12/03 10:06:07;;;;;;;15.25;4.83;;;;;;;2.42;100.00;148276.62;1672045;84;21057;-62
2022/12/03 10:08:34;;;;;;;12.78;4.80;;;;;;;2.43;100.00;148277.94;1672368;85;21046;-64
2022/12/03 10:11:01;;;;;;;13.85;5.33;;;;;;;2.46;100.00;148284.41;1672028;85;20916;-63
2022/12/03 10:13:29;;;;;;;28.25;6.08;;;;;;;2.45;100.00;148283.09;1671981;84;21062;-63
2022/12/03 10:15:58;;;;;;;15.60;4.95;;;;;;;2.46;100.00;148285.67;1672199;85;21333;-63
2022/12/03 10:18:29;;;;;;;12.40;4.75;;;;;;;2.47;100.00;148286.98;1671841;85;21020;-63
2022/12/03 10:20:56;;;;;;;10.60;4.95;;;;;;;2.48;100.00;148290.83;1672142;85;20986;-63
2022/12/03 10:23:26;;;;;;;14.60;4.87;;;;;;;2.50;100.00;148295.97;1672025;85;21034;-62
2022/12/03 10:25:59;;;;;;;9.83;4.72;;;;;;;2.53;100.00;148303.70;1672229;85;21345;-63
2022/12/03 10:28:36;;;;;;;22.25;5.12;;;;;;;2.53;100.00;148303.70;1671908;85;20998;-63
2022/12/03 10:31:07;;;;;;;14.78;5.33;;;;;;;2.52;100.00;148301.13;1672008;85;20955;-63
2022/12/03 10:33:37;;;;;;;13.90;4.75;;;;;;;2.52;100.00;148301.13;1671902;85;20927;-63
2022/12/03 10:36:22;;;;;;;10.53;4.65;;;;;;;2.52;100.00;148301.13;1672370;85;20963;-63
2022/12/03 10:39:09;;;;;;;10.72;4.45;;;;;;;2.53;100.00;148303.70;1672069;84;21010;-63
2022/12/03 10:41:37;;;;;;;8.78;4.22;;;;;;;2.53;100.00;148302.44;1671231;84;21159;-63
2022/12/03 10:44:24;;;;;;;14.80;4.83;;;;;;;2.54;100.00;148306.34;1672041;85;21401;-64
2022/12/03 10:47:12;;;;;;;17.98;5.30;;;;;;;2.54;100.00;148306.34;1671945;85;20912;-63
2022/12/03 15:32:07;;;;;;;14.07;5.13;;;;;;;1.33;100.00;148004.67;1695175;84;25042;-63
2022/12/03 15:34:34;;;;;;;12.25;5.15;;;;;;;1.34;100.00;148005.98;1696893;84;21002;-63
2022/12/03 15:37:01;;;;;;;13.78;5.42;;;;;;;1.35;100.00;148008.56;1696954;84;20907;-64
2022/12/03 15:39:28;;;;;;;12.13;5.47;;;;;;;1.35;100.00;148009.81;1697041;84;20911;-64
2022/12/03 15:41:55;;;;;;;13.50;5.60;;;;;;;1.35;100.00;148008.56;1696950;84;20875;-64
2022/12/03 15:44:22;;;;;;;13.22;5.67;;;;;;;1.33;100.00;148003.41;1696976;84;21418;-64
2022/12/03 15:46:48;;;;;;;11.73;5.15;;;;;;;1.31;100.00;147999.53;1696849;84;20914;-64
2022/12/03 15:49:16;;;;;;;11.55;5.17;;;;;;;1.30;100.00;147996.95;1696971;84;20878;-64
2022/12/03 15:51:42;;;;;;;12.93;4.67;;;;;;;1.31;100.00;147999.53;1697089;84;20973;-64
2022/12/03 15:54:11;;;;;;;10.80;5.37;;;;;;;1.32;100.00;148002.09;1697126;84;21017;-64
2022/12/03 15:56:37;;;;;;;12.85;5.70;;;;;;;1.30;100.00;147996.95;1697068;84;20890;-64
2022/12/03 15:59:04;;;;;;;13.72;5.75;;;;;;;1.29;100.00;147994.38;1696961;84;20946;-64
2022/12/03 16:01:31;;;;;;;12.00;5.62;;;;;;;1.29;100.00;147995.64;1696971;84;20930;-63
2022/12/03 16:03:58;;;;;;;11.30;4.97;;;;;;;1.28;100.00;147993.06;1696959;84;20946;-63
2022/12/03 16:06:25;;;;;;;17.32;6.20;;;;;;;1.26;100.00;147987.91;1696975;84;20933;-64
2022/12/03 16:08:51;;;;;;;15.05;5.28;;;;;;;1.25;100.00;147985.34;1696799;84;22152;-64
2022/12/03 16:11:18;;;;;;;17.73;5.30;;;;;;;1.25;100.00;147984.08;1696812;84;21013;-63
2022/12/03 16:13:45;;;;;;;12.07;5.10;;;;;;;1.23;100.00;147978.94;1696910;84;21033;-63
2022/12/03 16:16:12;;;;;;;12.73;5.28;;;;;;;1.22;100.00;147976.36;1696876;84;21414;-63
2022/12/03 16:18:39;;;;;;;19.50;6.00;;;;;;;1.23;100.00;147978.94;1696952;84;21439;-63
2022/12/03 16:21:05;;;;;;;12.68;5.58;;;;;;;1.22;100.00;147976.36;1696994;84;21183;-63
2022/12/03 16:23:32;;;;;;;11.83;5.60;;;;;;;1.23;100.00;147978.94;1696732;84;21024;-63
2022/12/03 16:25:59;;;;;;;17.23;5.17;;;;;;;1.23;100.00;147978.94;1696940;84;20997;-64
2022/12/03 16:28:26;;;;;;;12.63;5.00;;;;;;;1.21;100.00;147973.73;1696918;84;21395;-64
2022/12/03 16:30:53;;;;;;;16.52;6.28;;;;;;;1.18;100.00;147966.02;1696992;84;21001;-64
2022/12/03 16:33:20;;;;;;;14.40;6.03;;;;;;;1.18;100.00;147966.02;1697549;83;21244;-64
2022/12/03 16:35:47;;;;;;;16.95;5.08;;;;;;;1.17;100.00;147963.44;1697170;84;20986;-64
2022/12/03 16:38:13;;;;;;;11.55;5.17;;;;;;;1.18;100.00;147966.02;1697161;84;20902;-63
2022/12/03 16:40:40;;;;;;;13.68;4.90;;;;;;;1.20;100.00;147972.47;1697105;84;20993;-64
2022/12/03 16:43:09;;;;;;;13.35;4.95;;;;;;;1.22;100.00;147976.36;1697201;84;20958;-64
2022/12/03 16:48:21;;;;;;;12.25;5.10;;;;;;;1.24;100.00;147982.77;1697145;84;20946;-63
2022/12/03 16:50:48;;;;;;;15.68;5.33;;;;;;;1.25;100.00;147984.08;1697148;84;20898;-64
2022/12/03 16:53:15;;;;;;;19.48;5.10;;;;;;;1.27;100.00;147990.50;1697160;84;20894;-63
2022/12/03 16:55:41;;;;;;;15.20;5.42;;;;;;;1.29;100.00;147994.38;1697381;84;20997;-63
2022/12/03 16:58:08;;;;;;;16.35;6.37;;;;;;;1.30;100.00;147996.95;1697260;84;21091;-63
2022/12/03 17:00:36;;;;;;;16.00;6.12;;;;;;;1.32;100.00;148002.09;1697270;84;20969;-66
2022/12/03 17:03:03;;;;;;;13.45;5.70;;;;;;;1.33;100.00;148003.41;1696704;84;21353;-63
2022/12/03 17:05:29;;;;;;;14.25;6.00;;;;;;;1.34;100.00;148007.25;1697182;84;20954;-64
2022/12/03 17:07:56;;;;;;;12.93;5.28;;;;;;;1.35;100.00;148009.81;1697180;84;21371;-64
2022/12/03 17:10:23;;;;;;;14.10;5.62;;;;;;;1.38;100.00;148017.55;1697211;84;21134;-64
2022/12/03 17:12:50;;;;;;;15.00;5.45;;;;;;;1.38;100.00;148016.28;1697232;84;20994;-63
2022/12/03 17:15:17;;;;;;;18.40;6.78;;;;;;;1.41;100.00;148025.27;1697131;84;20879;-64
2022/12/03 17:17:44;;;;;;;15.58;5.33;;;;;;;1.42;100.00;148027.84;1697136;84;21000;-63
2022/12/03 17:20:12;;;;;;;13.75;5.28;;;;;;;1.43;100.00;148030.42;1697137;84;20989;-66
2022/12/03 17:22:38;;;;;;;11.40;4.87;;;;;;;1.45;100.00;148033.05;1697091;84;21089;-64
2022/12/03 17:25:06;;;;;;;12.50;5.12;;;;;;;1.48;100.00;148040.77;1697092;84;20914;-64
2022/12/03 17:27:33;;;;;;;18.42;5.45;;;;;;;1.46;100.00;148035.62;1697210;84;20977;-64
2022/12/03 17:30:00;;;;;;;24.05;4.97;;;;;;;1.46;100.00;148035.62;1697240;83;20974;-64
2022/12/03 17:32:26;;;;;;;13.98;4.75;;;;;;;1.49;100.00;148044.61;1697237;84;21344;-64
2022/12/03 17:34:53;;;;;;;13.18;4.65;;;;;;;1.53;100.00;148054.91;1699732;84;21133;-63
2022/12/03 17:37:20;;;;;;;15.23;4.90;;;;;;;1.56;100.00;148061.37;1699816;84;21438;-63
2022/12/03 17:39:46;;;;;;;14.23;4.83;;;;;;;1.57;100.00;148063.94;1691318;84;20966;-63
2022/12/03 17:42:35;;;;;;;18.65;5.20;;;;;;;1.56;100.00;148061.37;1689639;85;21475;-63
2022/12/03 17:45:05;;;;;;;13.18;4.10;;;;;;;1.54;100.00;148057.48;1689536;85;20900;-63
2022/12/03 17:47:32;;;;;;;13.62;4.37;;;;;;;1.53;100.00;148054.91;1689775;85;21141;-64
2022/12/03 17:49:59;;;;;;;13.75;4.95;;;;;;;1.55;100.00;148060.11;1689551;85;21055;-62
2022/12/03 17:52:25;;;;;;;15.23;4.60;;;;;;;1.56;100.00;148061.37;1689554;85;21392;-65
2022/12/03 17:54:52;;;;;;;15.32;4.55;;;;;;;1.57;100.00;148065.25;1689615;85;21356;-64
2022/12/03 17:57:18;;;;;;;16.25;4.97;;;;;;;1.60;100.00;148070.41;1689551;85;20962;-64
2022/12/03 17:59:45;;;;;;;15.35;5.00;;;;;;;1.57;100.00;148065.25;1658336;86;22160;-64
2022/12/03 18:02:11;;;;;;;18.57;5.20;;;;;;;1.57;100.00;148063.94;1658327;86;21012;-64
2022/12/03 18:04:38;;;;;;;14.75;5.10;;;;;;;1.56;100.00;148062.69;1658422;86;20917;-64
2022/12/03 18:07:05;;;;;;;11.40;4.22;;;;;;;1.54;100.00;148056.22;1672974;85;20903;-64
2022/12/03 18:09:31;;;;;;;20.45;4.70;;;;;;;1.52;100.00;148051.06;1663547;85;20972;-64
2022/12/03 18:11:58;;;;;;;16.60;4.72;;;;;;;1.53;100.00;148053.64;1689219;83;21415;-65
2022/12/03 18:14:25;;;;;;;13.62;4.85;;;;;;;1.52;100.00;148051.06;1689456;85;20970;-64
2022/12/03 18:16:51;;;;;;;16.37;5.40;;;;;;;1.50;100.00;148045.91;1689568;85;20990;-64
2022/12/03 18:19:18;;;;;;;15.93;5.08;;;;;;;1.50;100.00;148045.91;1689634;85;20990;-65
2022/12/03 18:21:45;;;;;;;14.25;4.47;;;;;;;1.49;100.00;148043.34;1689486;85;21046;-65
2022/12/03 18:24:11;;;;;;;17.57;4.65;;;;;;;1.49;100.00;148043.34;1689547;83;21220;-65
2022/12/03 18:26:38;;;;;;;13.78;4.55;;;;;;;1.49;100.00;148043.34;1689434;85;20907;-65
2022/12/03 18:29:05;;;;;;;15.23;4.65;;;;;;;1.51;100.00;148048.50;1689451;85;20923;-65
2022/12/03 18:31:34;;;;;;;13.28;4.85;;;;;;;1.53;100.00;148053.64;1689525;85;20961;-65
2022/12/03 18:34:01;;;;;;;12.00;4.42;;;;;;;1.55;100.00;148058.78;1689514;83;20962;-65
2022/12/03 18:36:31;;;;;;;11.25;4.87;;;;;;;1.56;100.00;148061.37;1689459;85;21213;-65
2022/12/03 18:38:59;;;;;;;11.73;5.03;;;;;;;1.58;100.00;148066.52;1689343;85;21013;-65
2022/12/03 18:41:26;;;;;;;14.58;5.05;;;;;;;1.60;100.00;148071.66;1689271;85;20923;-65
2022/12/03 18:43:53;;;;;;;14.07;5.30;;;;;;;1.59;100.00;148069.09;1689298;85;21424;-65
2022/12/03 18:46:19;;;;;;;18.70;5.80;;;;;;;1.57;100.00;148063.94;1689618;85;20978;-66
2022/12/03 18:48:47;;;;;;;14.83;4.62;;;;;;;1.57;100.00;148063.94;1689615;85;21791;-66
2022/12/03 18:51:20;;;;;;;19.65;5.50;;;;;;;1.56;100.00;148062.69;1689467;85;20915;-66
2022/12/03 18:53:48;;;;;;;14.38;4.47;;;;;;;1.56;100.00;148061.37;1689673;85;20938;-66
2022/12/03 18:56:15;;;;;;;10.93;4.92;;;;;;;1.55;100.00;148058.78;1689451;85;21026;-66
2022/12/03 18:58:42;;;;;;;12.75;4.45;;;;;;;1.55;100.00;148058.78;1689451;85;20946;-66
2022/12/03 19:01:19;;;;;;;10.88;4.37;;;;;;;1.55;100.00;148058.78;1689721;84;20998;-67
2022/12/03 19:03:46;;;;;;;17.27;4.80;;;;;;;1.53;100.00;148054.91;1670036;85;21008;-66
2022/12/03 19:06:15;;;;;;;14.35;4.78;;;;;;;1.54;100.00;148056.22;1685360;84;20942;-66
2022/12/03 19:08:42;;;;;;;10.30;4.67;;;;;;;1.54;100.00;148057.48;1689474;84;20990;-64
2022/12/03 19:11:11;;;;;;;14.45;5.05;;;;;;;1.54;100.00;148056.22;1689439;84;20962;-65
2022/12/03 19:13:39;;;;;;;13.18;5.10;;;;;;;1.53;100.00;148053.64;1689549;84;21143;-64
2022/12/03 19:16:07;;;;;;;15.80;5.75;;;;;;;1.50;100.00;148045.91;1689371;84;20910;-64
2022/12/03 19:18:33;;;;;;;12.28;5.42;;;;;;;1.45;100.00;148033.05;1689592;83;21460;-64
2022/12/03 19:21:08;;;;;;;12.55;5.17;;;;;;;1.42;100.00;148027.84;1689500;84;20994;-64
2022/12/03 19:23:35;;;;;;;13.62;5.03;;;;;;;1.40;100.00;148022.69;1669420;85;21427;-66
2022/12/03 19:26:03;;;;;;;16.67;5.08;;;;;;;1.38;100.00;148017.55;1689201;84;21249;-64
